createdAt,value
2018-01-15T00:00:22.194Z,6.30
2018-01-15T00:02:52.378Z,5.62
2018-01-15T00:05:22.861Z,6.12
2018-01-15T00:07:53.313Z,5.80
2018-01-15T00:10:23.874Z,5.22
2018-01-15T00:12:54.460Z,6.05
2018-01-15T00:15:24.820Z,6.10
2018-01-15T00:17:55.986Z,6.12
2018-01-15T00:20:26.324Z,5.55
2018-01-15T00:22:57.027Z,5.45
2018-01-15T00:25:27.491Z,6.03
2018-01-15T00:27:57.839Z,6.57
2018-01-15T00:30:27.623Z,5.60
2018-01-15T00:32:57.892Z,6.03
2018-01-15T00:35:29.016Z,7.05
2018-01-15T00:37:59.988Z,6.32
2018-01-15T00:40:30.247Z,6.12
2018-01-15T00:43:00.490Z,5.45
2018-01-15T00:45:31.009Z,5.85
2018-01-15T00:48:01.783Z,6.00
2018-01-15T00:50:32.800Z,6.15
2018-01-15T00:53:04.786Z,6.22
2018-01-15T00:55:36.934Z,5.60
2018-01-15T00:58:07.497Z,6.07
2018-01-15T01:00:38.193Z,6.35
2018-01-15T01:03:08.619Z,5.85
2018-01-15T01:05:39.077Z,5.68
2018-01-15T01:08:09.901Z,6.60
2018-01-15T01:10:39.984Z,5.90
2018-01-15T01:13:10.400Z,5.35
2018-01-15T01:15:40.645Z,6.32
2018-01-15T01:18:10.727Z,5.53
2018-01-15T01:20:41.055Z,6.05
2018-01-15T01:23:11.423Z,5.85
2018-01-15T01:25:41.872Z,6.00
2018-01-15T01:28:12.361Z,5.32
2018-01-15T01:30:42.749Z,6.30
2018-01-15T01:33:13.221Z,5.65
2018-01-15T01:35:43.698Z,6.12
2018-01-15T01:38:13.883Z,6.35
2018-01-15T01:40:44.305Z,5.50
2018-01-15T01:43:14.736Z,5.32
2018-01-15T01:45:45.047Z,5.87
2018-01-15T01:48:16.135Z,6.18
2018-01-15T01:50:46.641Z,5.45
2018-01-15T01:53:17.740Z,6.07
2018-01-15T01:55:48.099Z,6.05
2018-01-15T01:58:19.178Z,6.15
2018-01-15T02:00:49.538Z,5.28
2018-01-15T02:03:19.846Z,6.10
2018-01-15T02:05:50.627Z,5.82
2018-01-15T02:08:20.607Z,5.47
2018-01-15T02:10:50.473Z,5.87
2018-01-15T02:13:20.305Z,6.12
2018-01-15T02:15:50.478Z,5.20
2018-01-15T02:18:20.816Z,6.03
2018-01-15T02:20:51.304Z,5.65
2018-01-15T02:23:21.807Z,5.35
2018-01-15T02:25:52.401Z,5.68
2018-01-15T02:28:22.962Z,6.20
2018-01-15T02:30:53.566Z,6.45
2018-01-15T02:33:24.068Z,6.70
2018-01-15T02:35:54.500Z,5.93
2018-01-15T02:38:24.938Z,5.97
2018-01-15T02:40:55.551Z,5.47
2018-01-15T02:43:26.057Z,7.15
2018-01-15T02:45:56.520Z,5.62
2018-01-15T02:48:26.491Z,5.57
2018-01-15T02:50:56.911Z,5.07
2018-01-15T02:53:27.444Z,5.90
2018-01-15T02:55:57.905Z,5.95
2018-01-15T02:58:28.200Z,5.90
2018-01-15T03:00:58.677Z,6.28
2018-01-15T03:03:29.304Z,6.07
2018-01-15T03:05:59.238Z,6.40
2018-01-15T03:08:29.728Z,5.28
2018-01-15T03:11:00.271Z,5.97
2018-01-15T03:13:30.762Z,5.10
2018-01-15T03:16:01.747Z,5.80
2018-01-15T03:18:35.763Z,5.55
2018-01-15T03:21:05.963Z,5.72
2018-01-15T03:23:36.471Z,5.40
2018-01-15T03:26:06.407Z,5.30
2018-01-15T03:28:49.055Z,5.50
2018-01-15T03:31:21.309Z,5.00
2018-01-15T03:33:51.782Z,5.60
2018-01-15T03:36:22.300Z,5.47
2018-01-15T03:38:52.892Z,6.87
2018-01-15T03:41:23.392Z,6.37
2018-01-15T03:43:53.422Z,7.43
2018-01-15T03:46:24.790Z,6.78
2018-01-15T03:48:55.388Z,6.22
2018-01-15T03:51:26.038Z,6.53
2018-01-15T03:53:56.525Z,6.78
2018-01-15T03:56:27.146Z,5.80
2018-01-15T03:58:57.877Z,6.32
2018-01-15T04:01:31.992Z,7.43
2018-01-15T04:04:03.597Z,6.65
2018-01-15T04:09:09.889Z,7.00
2018-01-15T04:11:40.607Z,6.53
2018-01-15T04:14:11.779Z,6.72
2018-01-15T04:16:42.577Z,7.68
2018-01-15T04:19:13.438Z,7.87
2018-01-15T04:21:44.165Z,6.35
2018-01-15T04:24:14.877Z,7.30
2018-01-15T04:26:46.788Z,7.47
2018-01-15T04:31:52.863Z,6.90
2018-01-15T04:34:23.423Z,8.15
2018-01-15T04:36:54.699Z,8.40
2018-01-15T04:39:25.616Z,8.20
2018-01-15T04:41:56.500Z,7.85
2018-01-15T04:44:28.488Z,8.10
2018-01-15T04:46:58.980Z,7.95
2018-01-15T04:49:30.008Z,8.30
2018-01-15T04:52:00.838Z,8.77
2018-01-15T04:54:31.386Z,8.10
2018-01-15T04:57:02.841Z,7.57
2018-01-15T04:59:34.404Z,7.72
2018-01-15T05:02:05.060Z,7.80
2018-01-15T05:04:36.201Z,8.07
2018-01-15T05:07:06.990Z,9.15
2018-01-15T05:09:39.039Z,9.90
2018-01-15T05:12:11.176Z,9.77
2018-01-15T05:14:45.029Z,11.57
2018-01-15T05:17:16.184Z,11.15
2018-01-15T05:19:47.678Z,17.20
2018-01-15T05:22:18.415Z,15.02
2018-01-15T05:24:52.798Z,9.48
2018-01-15T05:27:23.160Z,9.30
2018-01-15T05:29:53.852Z,8.50
2018-01-15T05:32:28.362Z,9.18
2018-01-15T05:34:58.973Z,8.75
2018-01-15T05:37:30.002Z,9.18
2018-01-15T05:40:01.617Z,8.13
2018-01-15T05:42:32.278Z,8.75
2018-01-15T05:45:02.839Z,8.05
2018-01-15T05:47:33.541Z,8.13
2018-01-15T05:50:03.848Z,9.10
2018-01-15T05:52:34.502Z,9.45
2018-01-15T05:55:04.714Z,9.82
2018-01-15T05:57:35.272Z,8.60
2018-01-15T06:00:05.446Z,8.45
2018-01-15T06:02:44.780Z,8.45
2018-01-15T06:05:15.482Z,9.80
2018-01-15T06:07:46.320Z,9.25
2018-01-15T06:10:17.285Z,8.20
2018-01-15T06:12:47.198Z,7.65
2018-01-15T06:15:17.059Z,9.10
2018-01-15T06:17:46.988Z,8.00
2018-01-15T06:20:17.027Z,8.68
2018-01-15T06:22:46.864Z,7.60
2018-01-15T06:25:20.954Z,8.40
2018-01-15T06:27:50.748Z,7.68
2018-01-15T06:30:20.825Z,8.43
2018-01-15T06:32:50.769Z,8.70
2018-01-15T06:35:20.761Z,7.37
2018-01-15T06:37:50.714Z,8.43
2018-01-15T06:40:21.101Z,9.15
2018-01-15T06:42:51.047Z,9.15
2018-01-15T06:45:21.020Z,9.63
2018-01-15T06:47:51.172Z,8.77
2018-01-15T06:50:21.054Z,9.88
2018-01-15T06:52:51.081Z,8.45
2018-01-15T06:55:20.933Z,8.63
2018-01-15T06:57:50.576Z,8.60
2018-01-15T07:00:20.239Z,9.48
2018-01-15T07:02:50.297Z,8.75
2018-01-15T07:05:20.251Z,9.25
2018-01-15T07:07:49.824Z,10.20
2018-01-15T07:10:19.779Z,8.52
2018-01-15T07:12:49.768Z,8.88
2018-01-15T07:15:19.654Z,8.63
2018-01-15T07:17:49.558Z,9.52
2018-01-15T07:20:19.378Z,8.13
2018-01-15T07:22:49.673Z,8.65
2018-01-15T07:25:19.601Z,9.40
2018-01-15T07:27:49.782Z,8.88
2018-01-15T07:30:19.873Z,9.25
2018-01-15T07:32:50.123Z,8.52
2018-01-15T07:35:20.101Z,9.40
2018-01-15T07:37:50.071Z,8.02
2018-01-15T07:40:19.997Z,8.88
2018-01-15T07:42:49.933Z,9.07
2018-01-15T07:45:19.917Z,9.38
2018-01-15T07:47:50.071Z,9.05
2018-01-15T07:50:19.959Z,9.30
2018-01-15T07:52:50.022Z,8.68
2018-01-15T07:55:19.984Z,8.23
2018-01-15T07:57:49.694Z,8.88
2018-01-15T08:00:19.533Z,7.78
2018-01-15T08:02:49.210Z,8.45
2018-01-15T08:05:19.100Z,12.23
2018-01-15T08:07:49.598Z,8.90
2018-01-15T08:10:19.643Z,8.70
2018-01-15T08:12:49.539Z,8.95
2018-01-15T08:15:19.359Z,8.85
2018-01-15T08:17:49.202Z,8.55
2018-01-15T08:20:19.183Z,8.98
2018-01-15T08:22:49.050Z,8.82
2018-01-15T08:25:18.971Z,8.00
2018-01-15T08:27:48.959Z,9.45
2018-01-15T08:30:18.803Z,8.27
2018-01-15T08:32:48.653Z,9.20
2018-01-15T08:35:18.516Z,8.75
2018-01-15T08:37:48.420Z,8.88
2018-01-15T08:40:18.369Z,9.25
2018-01-15T08:42:48.228Z,8.15
2018-01-15T08:45:18.088Z,8.77
2018-01-15T08:47:47.918Z,9.57
2018-01-15T08:50:18.009Z,8.35
2018-01-15T08:52:48.085Z,8.73
2018-01-15T08:55:18.043Z,8.95
2018-01-15T08:57:48.015Z,9.07
2018-01-15T09:00:17.668Z,8.40
2018-01-15T09:02:47.629Z,9.68
2018-01-15T09:05:17.562Z,8.38
2018-01-15T09:07:47.468Z,8.25
2018-01-15T09:10:17.377Z,8.55
2018-01-15T09:12:47.251Z,8.05
2018-01-15T09:15:17.127Z,8.10
2018-01-15T09:17:46.951Z,8.57
2018-01-15T09:20:16.885Z,9.32
2018-01-15T09:22:46.826Z,8.55
2018-01-15T09:25:16.802Z,7.37
2018-01-15T09:27:46.656Z,8.10
2018-01-15T09:30:16.568Z,8.55
2018-01-15T09:32:46.481Z,8.55
2018-01-15T09:35:16.454Z,9.20
2018-01-15T09:37:46.176Z,7.90
2018-01-15T09:40:16.038Z,7.50
2018-01-15T09:42:45.953Z,8.90
2018-01-15T09:45:15.865Z,8.80
2018-01-15T09:47:45.719Z,7.75
2018-01-15T09:50:15.605Z,7.72
2018-01-15T09:52:45.456Z,8.48
2018-01-15T09:55:15.256Z,6.85
2018-01-15T09:57:45.176Z,6.93
2018-01-15T10:00:15.103Z,7.55
2018-01-15T10:02:44.896Z,7.50
2018-01-15T10:05:14.746Z,7.90
2018-01-15T10:07:44.575Z,8.82
2018-01-15T10:10:14.416Z,8.25
2018-01-15T10:12:44.350Z,8.85
2018-01-15T10:15:14.145Z,7.37
2018-01-15T10:17:44.053Z,8.00
2018-01-15T10:20:13.846Z,8.50
2018-01-15T10:22:43.664Z,9.27
2018-01-15T10:25:13.302Z,8.93
2018-01-15T10:27:43.203Z,7.32
2018-01-15T10:30:13.085Z,6.78
2018-01-15T10:32:43.043Z,7.25
2018-01-15T10:35:12.909Z,7.47
2018-01-15T10:37:42.743Z,7.62
2018-01-15T10:40:12.541Z,6.45
2018-01-15T10:42:42.339Z,6.15
2018-01-15T10:45:12.147Z,7.18
2018-01-15T10:47:42.099Z,6.70
2018-01-15T10:50:11.945Z,6.53
2018-01-15T10:52:41.740Z,7.22
2018-01-15T10:55:11.668Z,8.68
2018-01-15T10:57:42.954Z,7.28
2018-01-15T11:00:12.766Z,7.85
2018-01-15T11:02:42.583Z,8.45
2018-01-15T11:05:12.436Z,8.88
2018-01-15T11:07:42.301Z,8.88
2018-01-15T11:10:12.289Z,7.10
2018-01-15T11:12:42.119Z,7.50
2018-01-15T11:15:11.928Z,7.03
2018-01-15T11:17:41.882Z,8.60
2018-01-15T11:20:11.739Z,8.80
2018-01-15T11:22:41.755Z,8.43
2018-01-15T11:25:11.681Z,8.52
2018-01-15T11:27:41.531Z,7.75
2018-01-15T11:30:11.437Z,8.85
2018-01-15T11:32:41.327Z,9.48
2018-01-15T11:35:15.419Z,11.20
2018-01-15T11:37:45.291Z,11.82
2018-01-15T11:40:15.083Z,9.18
2018-01-15T11:42:44.935Z,9.05
2018-01-15T11:45:14.785Z,8.15
2018-01-15T11:47:44.602Z,11.50
2018-01-15T11:50:14.709Z,8.82
2018-01-15T11:52:44.619Z,8.75
2018-01-15T11:55:14.423Z,8.70
2018-01-15T11:57:44.235Z,8.10
2018-01-15T12:00:14.104Z,9.00
2018-01-15T12:02:43.909Z,8.68
2018-01-15T12:05:13.747Z,8.18
2018-01-15T12:07:43.625Z,9.70
2018-01-15T12:10:13.278Z,8.50
2018-01-15T12:12:43.277Z,9.93
2018-01-15T12:15:13.202Z,10.65
2018-01-15T12:17:43.040Z,8.48
2018-01-15T12:20:12.860Z,9.07
2018-01-15T12:22:42.420Z,7.40
2018-01-15T12:25:12.281Z,10.80
2018-01-15T12:27:42.095Z,9.75
2018-01-15T12:30:11.949Z,11.35
2018-01-15T12:32:41.870Z,11.63
2018-01-15T12:35:11.690Z,10.13
2018-01-15T12:37:41.543Z,11.57
2018-01-15T12:40:11.492Z,8.10
2018-01-15T12:42:41.462Z,9.98
2018-01-15T12:45:11.376Z,10.52
2018-01-15T12:47:41.241Z,7.28
2018-01-15T12:50:10.872Z,7.87
2018-01-15T12:52:40.896Z,8.50
2018-01-15T12:55:10.837Z,7.55
2018-01-15T12:57:40.399Z,8.15
2018-01-15T13:00:10.358Z,7.12
2018-01-15T13:02:40.193Z,6.40
2018-01-15T13:05:10.038Z,6.90
2018-01-15T13:07:51.029Z,7.35
2018-01-15T13:10:20.597Z,7.90
2018-01-15T13:12:50.497Z,7.80
2018-01-15T13:15:20.725Z,7.72
2018-01-15T13:17:50.578Z,7.85
2018-01-15T13:20:20.386Z,7.07
2018-01-15T13:22:50.223Z,8.50
2018-01-15T13:25:20.173Z,8.80
2018-01-15T13:27:50.121Z,8.30
2018-01-15T13:30:20.106Z,7.65
2018-01-15T13:32:49.938Z,7.82
2018-01-15T13:35:19.878Z,7.47
2018-01-15T13:37:49.770Z,9.40
2018-01-15T13:40:20.332Z,8.32
2018-01-15T13:42:50.078Z,8.57
2018-01-15T13:45:19.921Z,8.00
2018-01-15T13:47:49.822Z,8.00
2018-01-15T13:50:19.816Z,8.48
2018-01-15T13:52:49.712Z,7.72
2018-01-15T13:55:19.677Z,8.55
2018-01-15T13:57:49.623Z,10.50
2018-01-15T14:00:19.523Z,9.55
2018-01-15T14:02:49.324Z,8.70
2018-01-15T14:05:19.242Z,8.88
2018-01-15T14:07:49.253Z,8.90
2018-01-15T14:10:19.131Z,8.75
2018-01-15T14:12:49.013Z,9.25
2018-01-15T14:15:18.946Z,8.13
2018-01-15T14:17:48.891Z,8.70
2018-01-15T14:20:18.914Z,8.70
2018-01-15T14:22:48.906Z,9.48
2018-01-15T14:25:18.810Z,8.80
2018-01-15T14:27:48.703Z,7.55
2018-01-15T14:30:18.680Z,7.68
2018-01-15T14:32:48.740Z,6.85
2018-01-15T14:35:19.634Z,7.43
2018-01-15T14:37:49.413Z,8.43
2018-01-15T14:40:19.427Z,10.32
2018-01-15T14:42:49.225Z,8.60
2018-01-15T14:45:19.199Z,9.43
2018-01-15T14:47:49.136Z,8.75
2018-01-15T14:50:18.963Z,8.50
2018-01-15T14:52:48.934Z,8.60
2018-01-15T14:55:18.923Z,9.57
2018-01-15T14:57:48.928Z,8.27
2018-01-15T15:00:19.027Z,9.82
2018-01-15T15:02:49.042Z,9.57
2018-01-15T15:05:18.938Z,9.35
2018-01-15T15:07:48.969Z,8.60
2018-01-15T15:10:18.895Z,9.13
2018-01-15T15:12:48.832Z,9.13
2018-01-15T15:15:18.674Z,9.48
2018-01-15T15:17:48.601Z,9.88
2018-01-15T15:20:18.565Z,9.20
2018-01-15T15:22:48.507Z,9.52
2018-01-15T15:25:18.424Z,9.25
2018-01-15T15:27:48.354Z,10.73
2018-01-15T15:30:18.289Z,9.43
2018-01-15T15:32:48.458Z,10.02
2018-01-15T15:35:18.422Z,9.23
2018-01-15T15:37:48.365Z,9.43
2018-01-15T15:40:18.168Z,9.88
2018-01-15T15:42:48.266Z,9.60
2018-01-15T15:45:18.727Z,10.30
2018-01-15T15:47:48.640Z,9.80
2018-01-15T15:50:18.542Z,9.35
2018-01-15T15:52:48.441Z,10.25
2018-01-15T15:55:18.275Z,9.50
2018-01-15T15:57:48.184Z,10.45
2018-01-15T16:00:18.079Z,9.63
2018-01-15T16:02:48.023Z,10.23
2018-01-15T16:05:17.829Z,8.23
2018-01-15T16:07:47.724Z,10.05
2018-01-15T16:10:17.793Z,8.55
2018-01-15T16:12:47.696Z,10.88
2018-01-15T16:15:17.619Z,11.50
2018-01-15T16:17:48.041Z,11.27
2018-01-15T16:20:18.032Z,10.52
2018-01-15T16:22:58.324Z,10.18
2018-01-15T16:25:28.295Z,10.05
2018-01-15T16:27:58.181Z,8.90
2018-01-15T16:33:05.496Z,10.18
2018-01-15T16:35:35.867Z,11.20
2018-01-15T16:38:08.061Z,11.27
2018-01-15T16:40:46.529Z,10.98
2018-01-15T16:43:17.257Z,9.73
2018-01-15T16:45:47.137Z,11.40
2018-01-15T16:48:17.071Z,9.63
2018-01-15T16:50:47.111Z,12.05
2018-01-15T16:53:17.044Z,10.35
2018-01-15T16:55:46.961Z,11.07
2018-01-15T16:58:16.895Z,10.75
2018-01-15T17:00:46.772Z,11.48
2018-01-15T17:03:16.942Z,10.32
2018-01-15T17:05:46.868Z,10.57
2018-01-15T17:08:16.846Z,10.40
2018-01-15T17:10:46.696Z,11.48
2018-01-15T17:13:17.169Z,11.85
2018-01-15T17:15:47.048Z,10.32
2018-01-15T17:18:26.312Z,11.85
2018-01-15T17:20:58.508Z,10.65
2018-01-15T17:23:28.451Z,12.65
2018-01-15T17:25:59.990Z,10.85
2018-01-15T17:28:30.037Z,11.02
2018-01-15T17:31:00.010Z,10.77
2018-01-15T17:33:30.053Z,9.80
2018-01-15T17:35:59.940Z,9.60
2018-01-15T17:38:29.765Z,9.95
2018-01-15T17:40:59.619Z,10.02
2018-01-15T17:43:29.434Z,11.27
2018-01-15T17:45:59.324Z,12.63
2018-01-15T17:48:28.997Z,11.00
2018-01-15T17:50:58.820Z,11.48
2018-01-15T17:53:29.179Z,10.48
2018-01-15T17:55:59.075Z,9.65
2018-01-15T17:58:29.135Z,9.52
2018-01-15T18:00:59.113Z,9.60
2018-01-15T18:03:29.019Z,10.80
2018-01-15T18:05:58.933Z,10.35
2018-01-15T18:08:28.851Z,10.05
2018-01-15T18:10:58.764Z,10.20
2018-01-15T18:13:28.732Z,9.65
2018-01-15T18:15:58.706Z,9.23
2018-01-15T18:21:39.045Z,9.45
2018-01-15T18:24:08.698Z,8.07
2018-01-15T18:26:39.061Z,9.15
2018-01-15T18:29:09.000Z,9.65
2018-01-15T18:31:38.876Z,10.27
2018-01-15T18:34:10.671Z,9.90
2018-01-15T18:36:40.622Z,10.27
2018-01-15T18:39:10.491Z,10.30
2018-01-15T18:41:40.390Z,9.40
2018-01-15T18:44:10.374Z,9.10
2018-01-15T18:46:40.481Z,9.45
2018-01-15T18:49:10.361Z,9.90
2018-01-15T18:51:40.552Z,9.00
2018-01-15T18:54:10.478Z,8.65
2018-01-15T18:56:40.348Z,9.13
2018-01-15T18:59:10.229Z,9.27
2018-01-15T19:01:40.096Z,9.00
2018-01-15T19:04:09.915Z,8.90
2018-01-15T19:06:39.738Z,9.70
2018-01-15T19:09:09.588Z,8.23
2018-01-15T19:11:39.486Z,9.75
2018-01-15T19:14:09.480Z,9.30
2018-01-15T19:16:39.489Z,8.70
2018-01-15T19:19:09.367Z,8.18
2018-01-15T19:21:39.275Z,8.80
2018-01-15T19:24:09.213Z,8.00
2018-01-15T19:26:38.870Z,8.55
2018-01-15T19:29:09.368Z,7.53
2018-01-15T19:31:39.127Z,7.10
2018-01-15T19:34:09.870Z,7.75
2018-01-15T19:36:43.032Z,9.18
2018-01-15T19:39:13.203Z,9.88
2018-01-15T19:41:42.966Z,8.20
2018-01-15T19:44:18.386Z,9.10
2018-01-15T19:46:53.609Z,9.40
2018-01-15T19:49:28.747Z,8.98
2018-01-15T19:52:04.077Z,8.45
2018-01-15T19:57:48.365Z,7.53
2018-01-15T20:00:23.893Z,7.80
2018-01-15T20:02:59.421Z,9.40
2018-01-15T20:05:34.712Z,8.13
2018-01-15T20:08:10.140Z,7.78
2018-01-15T20:10:45.679Z,7.28
2018-01-15T20:13:15.592Z,7.82
2018-01-15T20:15:45.660Z,8.02
2018-01-15T20:18:15.739Z,8.40
2018-01-15T20:20:45.827Z,8.90
2018-01-15T20:23:15.879Z,7.80
2018-01-15T20:25:45.876Z,8.40
2018-01-15T20:28:15.979Z,7.93
2018-01-15T20:30:46.211Z,7.82
2018-01-15T20:33:16.169Z,7.78
2018-01-15T20:35:46.068Z,6.95
2018-01-15T20:38:16.065Z,7.82
2018-01-15T20:40:46.292Z,8.15
2018-01-15T20:43:16.777Z,7.90
2018-01-15T20:45:46.760Z,8.20
2018-01-15T20:48:16.737Z,6.70
2018-01-15T20:50:46.808Z,7.85
2018-01-15T20:53:16.798Z,7.25
2018-01-15T20:55:46.966Z,7.37
2018-01-15T20:58:16.916Z,8.05
2018-01-15T21:00:47.101Z,8.13
2018-01-15T21:03:17.294Z,7.45
2018-01-15T21:05:47.430Z,7.53
2018-01-15T21:08:17.764Z,9.05
2018-01-15T21:10:47.841Z,7.90
2018-01-15T21:13:17.767Z,8.35
2018-01-15T21:15:47.567Z,8.18
2018-01-15T21:18:17.386Z,8.82
2018-01-15T21:20:47.193Z,7.97
2018-01-15T21:23:17.005Z,7.93
2018-01-15T21:25:47.922Z,7.87
2018-01-15T21:28:17.880Z,8.30
2018-01-15T21:30:48.046Z,9.30
2018-01-15T21:33:17.961Z,7.80
2018-01-15T21:35:47.955Z,9.15
2018-01-15T21:38:17.815Z,8.18
2018-01-15T21:40:47.708Z,8.10
2018-01-15T21:43:17.889Z,7.65
2018-01-15T21:45:47.779Z,7.45
2018-01-15T21:48:17.741Z,8.50
2018-01-15T21:50:47.610Z,8.18
2018-01-15T21:53:17.536Z,8.15
2018-01-15T21:55:47.408Z,7.40
2018-01-15T21:58:17.346Z,7.43
2018-01-15T22:00:47.225Z,8.50
2018-01-15T22:03:17.109Z,7.78
2018-01-15T22:05:46.940Z,7.65
2018-01-15T22:08:16.825Z,8.20
2018-01-15T22:10:46.680Z,7.87
2018-01-15T22:13:16.588Z,8.27
2018-01-15T22:15:46.481Z,7.70
2018-01-15T22:18:16.393Z,8.13
2018-01-15T22:20:46.269Z,8.30
2018-01-15T22:23:16.158Z,7.55
2018-01-15T22:25:46.012Z,8.27
2018-01-15T22:28:15.866Z,8.00
2018-01-15T22:30:45.619Z,7.97
2018-01-15T22:33:15.464Z,7.70
2018-01-15T22:35:45.544Z,7.40
2018-01-15T22:38:15.384Z,6.50
2018-01-15T22:40:45.250Z,7.00
2018-01-15T22:43:15.050Z,6.00
2018-01-15T22:45:44.933Z,5.87
2018-01-15T22:48:14.784Z,6.57
2018-01-15T22:50:44.624Z,6.50
2018-01-15T22:53:14.516Z,5.65
2018-01-15T22:55:44.237Z,6.53
2018-01-15T22:58:14.029Z,6.65
2018-01-15T23:00:43.958Z,6.30
2018-01-15T23:03:13.994Z,6.18
2018-01-15T23:05:43.827Z,6.60
2018-01-15T23:08:13.670Z,5.65
2018-01-15T23:10:43.519Z,6.50
2018-01-15T23:13:13.342Z,6.55
2018-01-15T23:15:43.226Z,6.62
2018-01-15T23:18:13.089Z,7.37
2018-01-15T23:20:42.911Z,6.55
2018-01-15T23:23:12.760Z,5.72
2018-01-15T23:25:42.625Z,6.05
2018-01-15T23:28:12.452Z,6.35
2018-01-15T23:30:42.315Z,6.07
2018-01-15T23:33:12.151Z,6.07
2018-01-15T23:35:42.031Z,6.40
2018-01-15T23:38:11.873Z,6.50
2018-01-15T23:40:41.725Z,5.32
2018-01-15T23:43:11.553Z,6.40
2018-01-15T23:45:41.413Z,5.68
2018-01-15T23:48:11.343Z,5.55
2018-01-15T23:50:41.001Z,7.07
2018-01-15T23:53:10.933Z,6.12
2018-01-15T23:55:40.536Z,6.18
2018-01-15T23:58:10.381Z,5.55
